sensor_id;sensor_type;location;lat;lon;timestamp;P1;durP1;ratioP1;P2;durP2;ratioP2
12535;SDS011;6334;48.696;2.114;2023-02-01T00:01:47;10.73;;;5.60;;
12535;SDS011;6334;48.696;2.114;2023-02-01T00:04:17;10.97;;;6.20;;
12535;SDS011;6334;48.696;2.114;2023-02-01T00:06:48;9.70;;;5.83;;
12535;SDS011;6334;48.696;2.114;2023-02-01T00:09:18;12.43;;;5.90;;
12535;SDS011;6334;48.696;2.114;2023-02-01T00:11:49;9.67;;;5.67;;
12535;SDS011;6334;48.696;2.114;2023-02-01T00:14:19;9.53;;;5.60;;
12535;SDS011;6334;48.696;2.114;2023-02-01T00:16:49;10.73;;;6.13;;
12535;SDS011;6334;48.696;2.114;2023-02-01T00:19:20;11.80;;;5.60;;
12535;SDS011;6334;48.696;2.114;2023-02-01T00:21:50;13.20;;;6.00;;
12535;SDS011;6334;48.696;2.114;2023-02-01T00:24:21;12.33;;;5.63;;
12535;SDS011;6334;48.696;2.114;2023-02-01T00:26:51;13.83;;;6.47;;
12535;SDS011;6334;48.696;2.114;2023-02-01T00:29:23;10.73;;;5.10;;
12535;SDS011;6334;48.696;2.114;2023-02-01T00:31:53;10.73;;;5.53;;
12535;SDS011;6334;48.696;2.114;2023-02-01T00:34:24;12.70;;;5.50;;
12535;SDS011;6334;48.696;2.114;2023-02-01T00:36:54;11.30;;;5.37;;
12535;SDS011;6334;48.696;2.114;2023-02-01T00:39:25;8.57;;;5.40;;
12535;SDS011;6334;48.696;2.114;2023-02-01T00:41:55;10.17;;;5.30;;
12535;SDS011;6334;48.696;2.114;2023-02-01T00:44:26;9.27;;;4.80;;
12535;SDS011;6334;48.696;2.114;2023-02-01T00:46:56;11.03;;;5.47;;
12535;SDS011;6334;48.696;2.114;2023-02-01T00:49:27;8.30;;;4.83;;
12535;SDS011;6334;48.696;2.114;2023-02-01T00:51:57;8.53;;;4.97;;
12535;SDS011;6334;48.696;2.114;2023-02-01T00:54:27;11.97;;;5.00;;
12535;SDS011;6334;48.696;2.114;2023-02-01T00:56:58;9.03;;;4.90;;
12535;SDS011;6334;48.696;2.114;2023-02-01T00:59:29;7.87;;;4.87;;
12535;SDS011;6334;48.696;2.114;2023-02-01T01:01:59;9.60;;;4.93;;
12535;SDS011;6334;48.696;2.114;2023-02-01T01:04:30;11.23;;;4.63;;
12535;SDS011;6334;48.696;2.114;2023-02-01T01:07:00;11.63;;;5.10;;
12535;SDS011;6334;48.696;2.114;2023-02-01T01:09:32;8.10;;;4.50;;
12535;SDS011;6334;48.696;2.114;2023-02-01T01:12:02;9.07;;;4.50;;
12535;SDS011;6334;48.696;2.114;2023-02-01T01:14:33;10.13;;;4.90;;
12535;SDS011;6334;48.696;2.114;2023-02-01T01:17:03;8.30;;;4.70;;
12535;SDS011;6334;48.696;2.114;2023-02-01T01:19:33;9.07;;;5.03;;
12535;SDS011;6334;48.696;2.114;2023-02-01T01:22:04;8.87;;;5.00;;
12535;SDS011;6334;48.696;2.114;2023-02-01T01:24:34;7.73;;;4.90;;
12535;SDS011;6334;48.696;2.114;2023-02-01T01:27:05;11.20;;;4.77;;
12535;SDS011;6334;48.696;2.114;2023-02-01T01:29:35;8.10;;;4.57;;
12535;SDS011;6334;48.696;2.114;2023-02-01T01:32:06;7.20;;;4.30;;
12535;SDS011;6334;48.696;2.114;2023-02-01T01:34:36;8.33;;;4.70;;
12535;SDS011;6334;48.696;2.114;2023-02-01T01:37:07;9.97;;;4.87;;
12535;SDS011;6334;48.696;2.114;2023-02-01T01:39:37;10.17;;;4.80;;
12535;SDS011;6334;48.696;2.114;2023-02-01T01:42:10;7.73;;;4.47;;
12535;SDS011;6334;48.696;2.114;2023-02-01T01:47:37;9.17;;;4.53;;
12535;SDS011;6334;48.696;2.114;2023-02-01T01:50:06;8.20;;;4.43;;
12535;SDS011;6334;48.696;2.114;2023-02-01T01:52:36;7.43;;;4.50;;
12535;SDS011;6334;48.696;2.114;2023-02-01T01:55:07;8.27;;;4.60;;
12535;SDS011;6334;48.696;2.114;2023-02-01T01:57:38;5.77;;;4.03;;
12535;SDS011;6334;48.696;2.114;2023-02-01T02:00:11;8.80;;;4.40;;
12535;SDS011;6334;48.696;2.114;2023-02-01T02:02:41;10.23;;;4.60;;
12535;SDS011;6334;48.696;2.114;2023-02-01T02:05:11;13.37;;;4.63;;
12535;SDS011;6334;48.696;2.114;2023-02-01T02:07:43;9.33;;;4.27;;
12535;SDS011;6334;48.696;2.114;2023-02-01T02:10:13;8.97;;;4.20;;
12535;SDS011;6334;48.696;2.114;2023-02-01T02:12:43;7.43;;;3.90;;
12535;SDS011;6334;48.696;2.114;2023-02-01T02:15:14;9.13;;;3.97;;
12535;SDS011;6334;48.696;2.114;2023-02-01T02:20:39;6.33;;;3.70;;
12535;SDS011;6334;48.696;2.114;2023-02-01T02:26:20;7.43;;;3.70;;
12535;SDS011;6334;48.696;2.114;2023-02-01T02:31:58;11.00;;;3.50;;
12535;SDS011;6334;48.696;2.114;2023-02-01T02:40:06;6.70;;;3.37;;
12535;SDS011;6334;48.696;2.114;2023-02-01T02:45:38;11.07;;;3.63;;
12535;SDS011;6334;48.696;2.114;2023-02-01T02:48:30;10.57;;;3.63;;
12535;SDS011;6334;48.696;2.114;2023-02-01T02:51:01;13.50;;;3.20;;
12535;SDS011;6334;48.696;2.114;2023-02-01T02:56:50;10.10;;;3.03;;
12535;SDS011;6334;48.696;2.114;2023-02-01T02:59:39;10.20;;;3.80;;
12535;SDS011;6334;48.696;2.114;2023-02-01T03:02:27;9.93;;;3.70;;
12535;SDS011;6334;48.696;2.114;2023-02-01T03:05:16;9.80;;;3.20;;
12535;SDS011;6334;48.696;2.114;2023-02-01T03:07:57;9.63;;;3.30;;
12535;SDS011;6334;48.696;2.114;2023-02-01T03:13:16;10.33;;;3.57;;
12535;SDS011;6334;48.696;2.114;2023-02-01T03:15:51;12.50;;;3.40;;
12535;SDS011;6334;48.696;2.114;2023-02-01T03:18:28;9.93;;;3.27;;
12535;SDS011;6334;48.696;2.114;2023-02-01T03:20:55;8.77;;;3.20;;
12535;SDS011;6334;48.696;2.114;2023-02-01T03:23:27;11.10;;;2.83;;
12535;SDS011;6334;48.696;2.114;2023-02-01T03:25:56;10.00;;;3.40;;
12535;SDS011;6334;48.696;2.114;2023-02-01T03:28:27;10.10;;;3.40;;
12535;SDS011;6334;48.696;2.114;2023-02-01T03:30:57;10.17;;;3.60;;
12535;SDS011;6334;48.696;2.114;2023-02-01T03:33:27;12.20;;;3.27;;
12535;SDS011;6334;48.696;2.114;2023-02-01T03:38:44;10.43;;;3.50;;
12535;SDS011;6334;48.696;2.114;2023-02-01T03:41:32;11.20;;;3.93;;
12535;SDS011;6334;48.696;2.114;2023-02-01T03:44:01;8.50;;;3.33;;
12535;SDS011;6334;48.696;2.114;2023-02-01T03:49:21;5.67;;;2.97;;
12535;SDS011;6334;48.696;2.114;2023-02-01T03:51:50;10.63;;;3.43;;
12535;SDS011;6334;48.696;2.114;2023-02-01T03:54:20;10.53;;;3.10;;
12535;SDS011;6334;48.696;2.114;2023-02-01T03:56:51;12.73;;;3.50;;
12535;SDS011;6334;48.696;2.114;2023-02-01T03:59:21;10.13;;;3.27;;
12535;SDS011;6334;48.696;2.114;2023-02-01T04:01:52;11.10;;;3.37;;
12535;SDS011;6334;48.696;2.114;2023-02-01T04:04:22;11.87;;;3.33;;
12535;SDS011;6334;48.696;2.114;2023-02-01T04:06:53;10.57;;;3.17;;
12535;SDS011;6334;48.696;2.114;2023-02-01T04:09:23;8.40;;;3.03;;
12535;SDS011;6334;48.696;2.114;2023-02-01T04:11:54;10.97;;;3.10;;
12535;SDS011;6334;48.696;2.114;2023-02-01T04:14:24;9.97;;;3.30;;
12535;SDS011;6334;48.696;2.114;2023-02-01T04:16:54;9.83;;;2.93;;
12535;SDS011;6334;48.696;2.114;2023-02-01T04:19:24;10.73;;;3.50;;
12535;SDS011;6334;48.696;2.114;2023-02-01T04:21:55;11.60;;;3.63;;
12535;SDS011;6334;48.696;2.114;2023-02-01T04:24:25;10.60;;;2.97;;
12535;SDS011;6334;48.696;2.114;2023-02-01T04:26:56;10.90;;;2.93;;
12535;SDS011;6334;48.696;2.114;2023-02-01T04:29:28;12.60;;;3.50;;
12535;SDS011;6334;48.696;2.114;2023-02-01T04:31:58;8.30;;;3.20;;
12535;SDS011;6334;48.696;2.114;2023-02-01T04:34:29;11.83;;;3.50;;
12535;SDS011;6334;48.696;2.114;2023-02-01T04:36:59;12.20;;;3.70;;
12535;SDS011;6334;48.696;2.114;2023-02-01T04:39:30;12.63;;;3.60;;
12535;SDS011;6334;48.696;2.114;2023-02-01T04:42:00;12.97;;;3.57;;
12535;SDS011;6334;48.696;2.114;2023-02-01T04:44:30;10.03;;;3.87;;
12535;SDS011;6334;48.696;2.114;2023-02-01T04:47:01;14.77;;;3.43;;
12535;SDS011;6334;48.696;2.114;2023-02-01T04:49:31;12.80;;;3.93;;
12535;SDS011;6334;48.696;2.114;2023-02-01T04:52:03;12.63;;;3.67;;
12535;SDS011;6334;48.696;2.114;2023-02-01T04:54:34;10.43;;;3.40;;
12535;SDS011;6334;48.696;2.114;2023-02-01T04:57:04;14.83;;;3.83;;
12535;SDS011;6334;48.696;2.114;2023-02-01T04:59:34;11.30;;;3.30;;
12535;SDS011;6334;48.696;2.114;2023-02-01T05:02:05;11.27;;;3.90;;
12535;SDS011;6334;48.696;2.114;2023-02-01T05:04:35;9.57;;;3.70;;
12535;SDS011;6334;48.696;2.114;2023-02-01T05:07:06;10.77;;;4.00;;
12535;SDS011;6334;48.696;2.114;2023-02-01T05:09:36;13.30;;;3.33;;
12535;SDS011;6334;48.696;2.114;2023-02-01T05:12:08;9.97;;;3.87;;
12535;SDS011;6334;48.696;2.114;2023-02-01T05:14:55;11.33;;;4.00;;
12535;SDS011;6334;48.696;2.114;2023-02-01T05:17:26;9.20;;;3.70;;
12535;SDS011;6334;48.696;2.114;2023-02-01T05:19:56;11.33;;;3.83;;
12535;SDS011;6334;48.696;2.114;2023-02-01T05:22:26;8.70;;;3.30;;
12535;SDS011;6334;48.696;2.114;2023-02-01T05:24:57;10.47;;;3.23;;
12535;SDS011;6334;48.696;2.114;2023-02-01T05:27:29;10.87;;;3.97;;
12535;SDS011;6334;48.696;2.114;2023-02-01T05:29:59;10.10;;;3.17;;
12535;SDS011;6334;48.696;2.114;2023-02-01T05:32:30;10.50;;;3.53;;
12535;SDS011;6334;48.696;2.114;2023-02-01T05:35:00;12.97;;;3.67;;
12535;SDS011;6334;48.696;2.114;2023-02-01T05:37:30;12.53;;;3.47;;
12535;SDS011;6334;48.696;2.114;2023-02-01T05:40:01;12.23;;;4.17;;
12535;SDS011;6334;48.696;2.114;2023-02-01T05:42:31;14.20;;;4.23;;
12535;SDS011;6334;48.696;2.114;2023-02-01T05:45:01;11.87;;;3.70;;
12535;SDS011;6334;48.696;2.114;2023-02-01T05:47:34;11.43;;;3.77;;
12535;SDS011;6334;48.696;2.114;2023-02-01T05:50:06;13.77;;;4.37;;
12535;SDS011;6334;48.696;2.114;2023-02-01T05:52:35;14.50;;;3.30;;
12535;SDS011;6334;48.696;2.114;2023-02-01T05:55:06;9.47;;;3.33;;
12535;SDS011;6334;48.696;2.114;2023-02-01T05:57:36;11.03;;;3.90;;
12535;SDS011;6334;48.696;2.114;2023-02-01T06:00:07;12.37;;;4.90;;
12535;SDS011;6334;48.696;2.114;2023-02-01T06:02:37;17.00;;;4.53;;
12535;SDS011;6334;48.696;2.114;2023-02-01T06:05:08;17.87;;;4.97;;
12535;SDS011;6334;48.696;2.114;2023-02-01T06:07:38;13.83;;;5.50;;
12535;SDS011;6334;48.696;2.114;2023-02-01T06:10:09;16.07;;;5.17;;
12535;SDS011;6334;48.696;2.114;2023-02-01T06:12:39;14.00;;;4.23;;
12535;SDS011;6334;48.696;2.114;2023-02-01T06:15:10;12.57;;;4.10;;
12535;SDS011;6334;48.696;2.114;2023-02-01T06:17:40;12.93;;;4.50;;
12535;SDS011;6334;48.696;2.114;2023-02-01T06:20:11;10.30;;;3.97;;
12535;SDS011;6334;48.696;2.114;2023-02-01T06:22:41;9.37;;;3.67;;
12535;SDS011;6334;48.696;2.114;2023-02-01T06:25:11;8.77;;;3.23;;
12535;SDS011;6334;48.696;2.114;2023-02-01T06:27:42;11.97;;;3.50;;
12535;SDS011;6334;48.696;2.114;2023-02-01T06:30:12;17.17;;;4.90;;
12535;SDS011;6334;48.696;2.114;2023-02-01T06:32:43;13.13;;;3.70;;
12535;SDS011;6334;48.696;2.114;2023-02-01T06:35:13;17.53;;;4.33;;
12535;SDS011;6334;48.696;2.114;2023-02-01T06:37:44;13.07;;;4.20;;
12535;SDS011;6334;48.696;2.114;2023-02-01T06:40:14;9.03;;;3.37;;
12535;SDS011;6334;48.696;2.114;2023-02-01T06:42:47;11.80;;;3.90;;
12535;SDS011;6334;48.696;2.114;2023-02-01T06:45:16;13.03;;;3.57;;
12535;SDS011;6334;48.696;2.114;2023-02-01T06:47:46;11.80;;;3.50;;
12535;SDS011;6334;48.696;2.114;2023-02-01T06:50:17;12.43;;;3.80;;
12535;SDS011;6334;48.696;2.114;2023-02-01T06:52:46;14.43;;;4.73;;
12535;SDS011;6334;48.696;2.114;2023-02-01T06:55:17;14.10;;;4.23;;
12535;SDS011;6334;48.696;2.114;2023-02-01T06:57:47;10.23;;;3.97;;
12535;SDS011;6334;48.696;2.114;2023-02-01T07:00:17;6.93;;;3.07;;
12535;SDS011;6334;48.696;2.114;2023-02-01T07:02:47;14.53;;;3.70;;
12535;SDS011;6334;48.696;2.114;2023-02-01T07:05:17;11.27;;;3.27;;
12535;SDS011;6334;48.696;2.114;2023-02-01T07:07:47;8.40;;;2.70;;
12535;SDS011;6334;48.696;2.114;2023-02-01T07:10:18;9.97;;;3.17;;
12535;SDS011;6334;48.696;2.114;2023-02-01T07:12:49;9.77;;;3.23;;
12535;SDS011;6334;48.696;2.114;2023-02-01T07:15:18;11.87;;;3.97;;
12535;SDS011;6334;48.696;2.114;2023-02-01T07:17:48;14.17;;;4.23;;
12535;SDS011;6334;48.696;2.114;2023-02-01T07:20:17;11.60;;;3.43;;
12535;SDS011;6334;48.696;2.114;2023-02-01T07:22:47;13.67;;;3.90;;
12535;SDS011;6334;48.696;2.114;2023-02-01T07:25:17;15.73;;;4.00;;
12535;SDS011;6334;48.696;2.114;2023-02-01T07:27:48;9.37;;;3.67;;
12535;SDS011;6334;48.696;2.114;2023-02-01T07:30:17;13.40;;;3.73;;
12535;SDS011;6334;48.696;2.114;2023-02-01T07:32:47;11.77;;;4.20;;
12535;SDS011;6334;48.696;2.114;2023-02-01T07:35:17;10.70;;;3.50;;
12535;SDS011;6334;48.696;2.114;2023-02-01T07:37:48;14.03;;;3.87;;
12535;SDS011;6334;48.696;2.114;2023-02-01T07:40:19;10.90;;;3.63;;
12535;SDS011;6334;48.696;2.114;2023-02-01T07:42:49;10.07;;;3.63;;
12535;SDS011;6334;48.696;2.114;2023-02-01T07:45:19;12.30;;;4.27;;
12535;SDS011;6334;48.696;2.114;2023-02-01T07:47:48;11.63;;;3.70;;
12535;SDS011;6334;48.696;2.114;2023-02-01T07:50:18;14.13;;;3.73;;
12535;SDS011;6334;48.696;2.114;2023-02-01T07:52:48;14.30;;;3.67;;
12535;SDS011;6334;48.696;2.114;2023-02-01T07:55:17;11.57;;;4.00;;
12535;SDS011;6334;48.696;2.114;2023-02-01T07:57:48;13.27;;;3.57;;
12535;SDS011;6334;48.696;2.114;2023-02-01T08:00:17;10.83;;;3.33;;
12535;SDS011;6334;48.696;2.114;2023-02-01T08:03:05;12.43;;;3.90;;
12535;SDS011;6334;48.696;2.114;2023-02-01T08:05:34;9.40;;;3.37;;
12535;SDS011;6334;48.696;2.114;2023-02-01T08:08:04;14.00;;;4.00;;
12535;SDS011;6334;48.696;2.114;2023-02-01T08:10:34;18.65;;;5.25;;
12535;SDS011;6334;48.696;2.114;2023-02-01T08:13:03;10.70;;;3.73;;
12535;SDS011;6334;48.696;2.114;2023-02-01T08:15:33;12.50;;;4.10;;
12535;SDS011;6334;48.696;2.114;2023-02-01T08:18:02;11.33;;;3.70;;
12535;SDS011;6334;48.696;2.114;2023-02-01T08:20:33;10.23;;;3.60;;
12535;SDS011;6334;48.696;2.114;2023-02-01T08:23:03;12.07;;;4.07;;
12535;SDS011;6334;48.696;2.114;2023-02-01T08:25:38;14.60;;;4.37;;
12535;SDS011;6334;48.696;2.114;2023-02-01T08:28:08;11.53;;;3.93;;
12535;SDS011;6334;48.696;2.114;2023-02-01T08:30:37;11.93;;;4.10;;
12535;SDS011;6334;48.696;2.114;2023-02-01T08:33:07;14.47;;;4.47;;
12535;SDS011;6334;48.696;2.114;2023-02-01T08:35:37;14.27;;;4.50;;
12535;SDS011;6334;48.696;2.114;2023-02-01T08:38:06;12.53;;;4.20;;
12535;SDS011;6334;48.696;2.114;2023-02-01T08:40:37;11.80;;;3.93;;
12535;SDS011;6334;48.696;2.114;2023-02-01T08:43:07;11.00;;;3.93;;
12535;SDS011;6334;48.696;2.114;2023-02-01T08:45:37;12.83;;;3.80;;
12535;SDS011;6334;48.696;2.114;2023-02-01T08:48:06;9.77;;;4.00;;
12535;SDS011;6334;48.696;2.114;2023-02-01T08:50:36;11.57;;;3.63;;
12535;SDS011;6334;48.696;2.114;2023-02-01T08:53:06;13.17;;;4.60;;
12535;SDS011;6334;48.696;2.114;2023-02-01T08:55:35;11.30;;;4.33;;
12535;SDS011;6334;48.696;2.114;2023-02-01T08:58:06;13.90;;;4.10;;
12535;SDS011;6334;48.696;2.114;2023-02-01T09:00:36;14.73;;;4.50;;
12535;SDS011;6334;48.696;2.114;2023-02-01T09:03:08;11.17;;;3.83;;
12535;SDS011;6334;48.696;2.114;2023-02-01T09:05:36;11.23;;;4.13;;
12535;SDS011;6334;48.696;2.114;2023-02-01T09:08:07;8.13;;;3.63;;
12535;SDS011;6334;48.696;2.114;2023-02-01T09:10:37;16.67;;;4.23;;
12535;SDS011;6334;48.696;2.114;2023-02-01T09:13:07;14.80;;;3.87;;
12535;SDS011;6334;48.696;2.114;2023-02-01T09:15:38;8.27;;;3.53;;
12535;SDS011;6334;48.696;2.114;2023-02-01T09:18:07;9.43;;;3.97;;
12535;SDS011;6334;48.696;2.114;2023-02-01T09:20:38;11.53;;;4.27;;
12535;SDS011;6334;48.696;2.114;2023-02-01T09:23:12;14.42;;;4.42;;
12535;SDS011;6334;48.696;2.114;2023-02-01T09:25:43;12.27;;;4.35;;
12535;SDS011;6334;48.696;2.114;2023-02-01T09:28:12;10.33;;;3.70;;
12535;SDS011;6334;48.696;2.114;2023-02-01T09:30:42;14.20;;;4.20;;
12535;SDS011;6334;48.696;2.114;2023-02-01T09:33:12;13.40;;;4.10;;
12535;SDS011;6334;48.696;2.114;2023-02-01T09:35:43;14.87;;;4.13;;
12535;SDS011;6334;48.696;2.114;2023-02-01T09:38:13;10.33;;;3.77;;
12535;SDS011;6334;48.696;2.114;2023-02-01T09:40:45;14.13;;;4.20;;
12535;SDS011;6334;48.696;2.114;2023-02-01T09:43:22;16.36;;;4.20;;
12535;SDS011;6334;48.696;2.114;2023-02-01T09:45:53;10.03;;;3.63;;
12535;SDS011;6334;48.696;2.114;2023-02-01T09:51:13;12.00;;;3.47;;
12535;SDS011;6334;48.696;2.114;2023-02-01T09:56:38;12.60;;;3.77;;
12535;SDS011;6334;48.696;2.114;2023-02-01T10:01:39;13.50;;;3.70;;
12535;SDS011;6334;48.696;2.114;2023-02-01T10:04:12;8.86;;;3.08;;
12535;SDS011;6334;48.696;2.114;2023-02-01T10:26:35;11.33;;;3.83;;
12535;SDS011;6334;48.696;2.114;2023-02-01T10:35:44;11.04;;;4.07;;
12535;SDS011;6334;48.696;2.114;2023-02-01T10:38:29;13.83;;;4.36;;
12535;SDS011;6334;48.696;2.114;2023-02-01T10:41:04;13.14;;;4.88;;
12535;SDS011;6334;48.696;2.114;2023-02-01T10:43:41;13.03;;;4.10;;
12535;SDS011;6334;48.696;2.114;2023-02-01T10:46:23;9.39;;;3.44;;
12535;SDS011;6334;48.696;2.114;2023-02-01T10:48:54;12.43;;;4.48;;
12535;SDS011;6334;48.696;2.114;2023-02-01T10:56:47;14.70;;;5.23;;
12535;SDS011;6334;48.696;2.114;2023-02-01T10:59:23;11.93;;;4.80;;
12535;SDS011;6334;48.696;2.114;2023-02-01T11:01:57;15.01;;;5.66;;
12535;SDS011;6334;48.696;2.114;2023-02-01T11:04:37;14.28;;;4.72;;
12535;SDS011;6334;48.696;2.114;2023-02-01T11:09:50;16.03;;;5.50;;
12535;SDS011;6334;48.696;2.114;2023-02-01T11:12:27;19.80;;;5.63;;
12535;SDS011;6334;48.696;2.114;2023-02-01T11:15:01;24.03;;;8.97;;
12535;SDS011;6334;48.696;2.114;2023-02-01T11:17:43;20.00;;;7.57;;
12535;SDS011;6334;48.696;2.114;2023-02-01T11:20:16;18.00;;;6.50;;
12535;SDS011;6334;48.696;2.114;2023-02-01T11:22:47;16.33;;;5.33;;
12535;SDS011;6334;48.696;2.114;2023-02-01T11:25:16;16.57;;;5.57;;
12535;SDS011;6334;48.696;2.114;2023-02-01T11:27:47;12.70;;;5.13;;
12535;SDS011;6334;48.696;2.114;2023-02-01T11:33:12;11.10;;;4.30;;
12535;SDS011;6334;48.696;2.114;2023-02-01T11:35:38;6.53;;;3.87;;
12535;SDS011;6334;48.696;2.114;2023-02-01T11:38:25;12.93;;;4.03;;
12535;SDS011;6334;48.696;2.114;2023-02-01T11:40:52;9.13;;;3.73;;
12535;SDS011;6334;48.696;2.114;2023-02-01T11:43:23;14.10;;;4.00;;
12535;SDS011;6334;48.696;2.114;2023-02-01T11:45:55;11.67;;;3.90;;
12535;SDS011;6334;48.696;2.114;2023-02-01T11:48:24;10.87;;;3.40;;
12535;SDS011;6334;48.696;2.114;2023-02-01T11:51:15;9.40;;;3.60;;
12535;SDS011;6334;48.696;2.114;2023-02-01T11:53:56;12.07;;;3.60;;
12535;SDS011;6334;48.696;2.114;2023-02-01T12:01:59;12.40;;;4.10;;
12535;SDS011;6334;48.696;2.114;2023-02-01T12:09:54;12.63;;;3.63;;
12535;SDS011;6334;48.696;2.114;2023-02-01T12:20:56;13.27;;;3.73;;
12535;SDS011;6334;48.696;2.114;2023-02-01T12:26:51;12.93;;;3.63;;
12535;SDS011;6334;48.696;2.114;2023-02-01T12:29:05;9.07;;;3.00;;
12535;SDS011;6334;48.696;2.114;2023-02-01T12:34:41;11.07;;;3.23;;
12535;SDS011;6334;48.696;2.114;2023-02-01T12:39:52;13.97;;;3.63;;
12535;SDS011;6334;48.696;2.114;2023-02-01T12:42:19;11.27;;;4.00;;
12535;SDS011;6334;48.696;2.114;2023-02-01T12:44:53;10.33;;;3.60;;
12535;SDS011;6334;48.696;2.114;2023-02-01T12:50:05;10.03;;;3.57;;
12535;SDS011;6334;48.696;2.114;2023-02-01T12:52:55;8.27;;;3.17;;
12535;SDS011;6334;48.696;2.114;2023-02-01T12:55:22;7.87;;;3.60;;
12535;SDS011;6334;48.696;2.114;2023-02-01T12:57:58;10.53;;;3.37;;
12535;SDS011;6334;48.696;2.114;2023-02-01T13:00:29;12.23;;;3.70;;
12535;SDS011;6334;48.696;2.114;2023-02-01T13:02:57;10.83;;;3.17;;
12535;SDS011;6334;48.696;2.114;2023-02-01T13:08:12;11.20;;;3.70;;
12535;SDS011;6334;48.696;2.114;2023-02-01T13:10:39;15.07;;;4.50;;
12535;SDS011;6334;48.696;2.114;2023-02-01T13:13:17;9.37;;;3.57;;
12535;SDS011;6334;48.696;2.114;2023-02-01T13:15:46;10.33;;;3.80;;
12535;SDS011;6334;48.696;2.114;2023-02-01T13:18:18;10.00;;;3.47;;
12535;SDS011;6334;48.696;2.114;2023-02-01T13:20:48;11.53;;;3.80;;
12535;SDS011;6334;48.696;2.114;2023-02-01T13:23:23;10.88;;;3.65;;
12535;SDS011;6334;48.696;2.114;2023-02-01T13:40:33;8.47;;;3.50;;
12535;SDS011;6334;48.696;2.114;2023-02-01T13:43:23;12.80;;;4.24;;
12535;SDS011;6334;48.696;2.114;2023-02-01T13:45:54;10.93;;;3.13;;
12535;SDS011;6334;48.696;2.114;2023-02-01T13:51:15;12.26;;;3.56;;
12535;SDS011;6334;48.696;2.114;2023-02-01T13:53:58;11.02;;;4.03;;
12535;SDS011;6334;48.696;2.114;2023-02-01T13:56:41;9.85;;;3.70;;
12535;SDS011;6334;48.696;2.114;2023-02-01T14:02:37;13.03;;;4.43;;
12535;SDS011;6334;48.696;2.114;2023-02-01T14:08:13;7.59;;;3.41;;
12535;SDS011;6334;48.696;2.114;2023-02-01T14:19:28;8.27;;;3.53;;
12535;SDS011;6334;48.696;2.114;2023-02-01T14:21:58;10.17;;;3.50;;
12535;SDS011;6334;48.696;2.114;2023-02-01T14:24:34;7.12;;;3.03;;
12535;SDS011;6334;48.696;2.114;2023-02-01T14:27:18;9.66;;;3.87;;
12535;SDS011;6334;48.696;2.114;2023-02-01T14:30:04;13.72;;;3.31;;
12535;SDS011;6334;48.696;2.114;2023-02-01T14:32:33;8.03;;;3.50;;
12535;SDS011;6334;48.696;2.114;2023-02-01T14:35:08;10.67;;;3.30;;
12535;SDS011;6334;48.696;2.114;2023-02-01T14:37:38;9.40;;;3.67;;
12535;SDS011;6334;48.696;2.114;2023-02-01T14:50:44;9.43;;;3.07;;
12535;SDS011;6334;48.696;2.114;2023-02-01T14:56:18;12.27;;;3.57;;
12535;SDS011;6334;48.696;2.114;2023-02-01T15:10:25;9.17;;;3.41;;
12535;SDS011;6334;48.696;2.114;2023-02-01T15:16:13;12.03;;;3.61;;
12535;SDS011;6334;48.696;2.114;2023-02-01T15:18:41;10.61;;;3.66;;
12535;SDS011;6334;48.696;2.114;2023-02-01T15:21:21;12.46;;;3.75;;
12535;SDS011;6334;48.696;2.114;2023-02-01T15:27:03;10.10;;;3.54;;
12535;SDS011;6334;48.696;2.114;2023-02-01T15:45:26;6.50;;;3.10;;
12535;SDS011;6334;48.696;2.114;2023-02-01T15:47:57;8.47;;;3.03;;
12535;SDS011;6334;48.696;2.114;2023-02-01T15:50:26;6.83;;;3.30;;
12535;SDS011;6334;48.696;2.114;2023-02-01T15:52:57;7.83;;;3.07;;
12535;SDS011;6334;48.696;2.114;2023-02-01T15:58:30;11.02;;;3.72;;
12535;SDS011;6334;48.696;2.114;2023-02-01T16:01:01;8.18;;;3.49;;
12535;SDS011;6334;48.696;2.114;2023-02-01T16:09:48;10.30;;;3.47;;
12535;SDS011;6334;48.696;2.114;2023-02-01T16:12:26;9.41;;;3.48;;
12535;SDS011;6334;48.696;2.114;2023-02-01T16:15:05;6.99;;;2.66;;
12535;SDS011;6334;48.696;2.114;2023-02-01T16:17:35;6.97;;;3.00;;
12535;SDS011;6334;48.696;2.114;2023-02-01T16:20:06;11.92;;;3.48;;
12535;SDS011;6334;48.696;2.114;2023-02-01T16:22:37;8.60;;;3.83;;
12535;SDS011;6334;48.696;2.114;2023-02-01T16:25:07;6.63;;;2.65;;
12535;SDS011;6334;48.696;2.114;2023-02-01T16:27:40;10.43;;;4.10;;
12535;SDS011;6334;48.696;2.114;2023-02-01T16:30:10;11.83;;;4.09;;
12535;SDS011;6334;48.696;2.114;2023-02-01T16:35:27;10.60;;;3.60;;
12535;SDS011;6334;48.696;2.114;2023-02-01T16:37:55;6.73;;;3.50;;
12535;SDS011;6334;48.696;2.114;2023-02-01T16:43:33;9.83;;;3.70;;
12535;SDS011;6334;48.696;2.114;2023-02-01T16:46:13;8.77;;;3.92;;
12535;SDS011;6334;48.696;2.114;2023-02-01T16:48:56;9.48;;;3.98;;
12535;SDS011;6334;48.696;2.114;2023-02-01T17:02:52;13.73;;;5.10;;
12535;SDS011;6334;48.696;2.114;2023-02-01T17:21:05;7.14;;;3.21;;
12535;SDS011;6334;48.696;2.114;2023-02-01T17:39:48;10.23;;;3.80;;
12535;SDS011;6334;48.696;2.114;2023-02-01T17:42:33;12.31;;;5.20;;
12535;SDS011;6334;48.696;2.114;2023-02-01T17:45:13;11.00;;;4.50;;
12535;SDS011;6334;48.696;2.114;2023-02-01T17:50:57;10.72;;;3.86;;
12535;SDS011;6334;48.696;2.114;2023-02-01T17:53:28;8.60;;;3.97;;
12535;SDS011;6334;48.696;2.114;2023-02-01T17:55:58;7.77;;;3.97;;
12535;SDS011;6334;48.696;2.114;2023-02-01T17:58:33;11.93;;;3.95;;
12535;SDS011;6334;48.696;2.114;2023-02-01T18:01:18;11.93;;;4.66;;
12535;SDS011;6334;48.696;2.114;2023-02-01T18:47:09;8.80;;;3.97;;
12535;SDS011;6334;48.696;2.114;2023-02-01T18:49:40;10.43;;;4.37;;
12535;SDS011;6334;48.696;2.114;2023-02-01T18:52:10;8.47;;;4.27;;
12535;SDS011;6334;48.696;2.114;2023-02-01T18:54:39;14.13;;;4.70;;
12535;SDS011;6334;48.696;2.114;2023-02-01T18:57:09;13.30;;;5.30;;
12535;SDS011;6334;48.696;2.114;2023-02-01T18:59:41;12.47;;;4.63;;
12535;SDS011;6334;48.696;2.114;2023-02-01T19:09:21;8.69;;;3.60;;
12535;SDS011;6334;48.696;2.114;2023-02-01T19:11:51;11.23;;;3.60;;
12535;SDS011;6334;48.696;2.114;2023-02-01T19:14:25;10.71;;;3.67;;
12535;SDS011;6334;48.696;2.114;2023-02-01T19:16:56;10.07;;;4.03;;
12535;SDS011;6334;48.696;2.114;2023-02-01T19:19:31;6.86;;;3.12;;
12535;SDS011;6334;48.696;2.114;2023-02-01T19:22:01;9.87;;;3.40;;
12535;SDS011;6334;48.696;2.114;2023-02-01T19:24:31;12.63;;;3.73;;
12535;SDS011;6334;48.696;2.114;2023-02-01T19:27:02;13.30;;;3.85;;
12535;SDS011;6334;48.696;2.114;2023-02-01T19:29:32;10.07;;;4.13;;
12535;SDS011;6334;48.696;2.114;2023-02-01T19:32:20;10.66;;;4.11;;
12535;SDS011;6334;48.696;2.114;2023-02-01T19:34:51;12.07;;;4.10;;
12535;SDS011;6334;48.696;2.114;2023-02-01T19:37:22;11.04;;;3.68;;
12535;SDS011;6334;48.696;2.114;2023-02-01T19:39:53;11.13;;;4.50;;
12535;SDS011;6334;48.696;2.114;2023-02-01T19:42:26;9.35;;;4.20;;
12535;SDS011;6334;48.696;2.114;2023-02-01T19:44:56;10.40;;;4.27;;
12535;SDS011;6334;48.696;2.114;2023-02-01T19:47:28;10.45;;;4.32;;
12535;SDS011;6334;48.696;2.114;2023-02-01T19:50:15;12.32;;;4.38;;
12535;SDS011;6334;48.696;2.114;2023-02-01T19:52:45;9.93;;;3.90;;
12535;SDS011;6334;48.696;2.114;2023-02-01T19:55:16;10.00;;;4.17;;
12535;SDS011;6334;48.696;2.114;2023-02-01T19:57:54;13.59;;;3.78;;
12535;SDS011;6334;48.696;2.114;2023-02-01T20:00:24;9.70;;;4.00;;
12535;SDS011;6334;48.696;2.114;2023-02-01T20:02:56;10.87;;;4.33;;
12535;SDS011;6334;48.696;2.114;2023-02-01T20:05:26;11.87;;;3.80;;
12535;SDS011;6334;48.696;2.114;2023-02-01T20:07:55;8.47;;;3.80;;
12535;SDS011;6334;48.696;2.114;2023-02-01T20:10:26;11.70;;;3.68;;
12535;SDS011;6334;48.696;2.114;2023-02-01T20:12:56;9.68;;;3.53;;
12535;SDS011;6334;48.696;2.114;2023-02-01T20:15:27;10.64;;;3.58;;
12535;SDS011;6334;48.696;2.114;2023-02-01T20:17:57;9.67;;;3.77;;
12535;SDS011;6334;48.696;2.114;2023-02-01T20:20:27;11.85;;;3.58;;
12535;SDS011;6334;48.696;2.114;2023-02-01T20:23:00;10.20;;;3.76;;
12535;SDS011;6334;48.696;2.114;2023-02-01T20:25:30;9.00;;;3.60;;